Time;durP1;ratioP1;P1;durP2;ratioP2;P2;SDS_P1;SDS_P2;PMS_P1;PMS_P2;Temp;Humidity;BMP_temperature;BMP_pressure;BME280_temperature;BME280_humidity;BME280_pressure;Samples;Min_cycle;Max_cycle;Signal;HPM_P1;HPM_P2
2021/08/31 00:02:18;;;;;;;14.37;12.97;;;17.60;87.70;;;;;;5053282;28;20457;-71
2021/08/31 00:04:45;;;;;;;13.00;11.70;;;17.60;87.60;;;;;;5053622;28;20448;-71
2021/08/31 00:07:12;;;;;;;16.67;12.60;;;17.50;87.40;;;;;;5053298;28;20448;-71
2021/08/31 00:09:38;;;;;;;15.00;12.70;;;17.50;87.20;;;;;;5053270;28;20810;-71
2021/08/31 00:12:07;;;;;;;13.27;11.93;;;17.50;87.10;;;;;;5052723;28;20478;-71
2021/08/31 00:14:35;;;;;;;14.77;13.37;;;17.40;86.80;;;;;;5053225;28;20454;-71
2021/08/31 00:17:04;;;;;;;13.50;12.20;;;17.40;86.60;;;;;;5053360;28;20460;-71
2021/08/31 00:19:31;;;;;;;19.37;12.60;;;17.40;86.60;;;;;;5053248;28;20516;-70
2021/08/31 00:21:57;;;;;;;13.30;12.00;;;17.40;86.70;;;;;;5053155;28;20465;-70
2021/08/31 00:24:24;;;;;;;12.87;11.73;;;17.30;86.60;;;;;;5053160;28;20465;-70
2021/08/31 00:26:51;;;;;;;13.30;12.00;;;17.30;86.50;;;;;;5053087;28;20449;-70
2021/08/31 00:29:17;;;;;;;12.30;11.20;;;17.30;86.50;;;;;;5053046;28;20449;-71
2021/08/31 00:31:44;;;;;;;13.23;11.77;;;17.20;86.30;;;;;;5053037;28;20465;-72
2021/08/31 00:34:12;;;;;;;12.87;11.57;;;17.30;86.60;;;;;;5052957;28;20480;-71
2021/08/31 00:36:39;;;;;;;13.17;11.67;;;17.20;86.60;;;;;;5052999;28;20445;-71
2021/08/31 00:39:05;;;;;;;12.57;11.30;;;17.20;86.50;;;;;;5052989;28;20457;-71
2021/08/31 00:41:35;;;;;;;11.60;10.40;;;17.20;86.40;;;;;;5052916;28;20466;-71
2021/08/31 00:44:03;;;;;;;11.23;10.03;;;17.10;86.30;;;;;;5053009;28;20442;-71
2021/08/31 00:46:30;;;;;;;11.97;10.77;;;17.10;86.30;;;;;;5052941;28;20472;-71
2021/08/31 00:48:57;;;;;;;12.60;11.30;;;17.10;86.40;;;;;;5052920;28;20445;-70
2021/08/31 00:51:26;;;;;;;12.60;11.30;;;17.10;86.60;;;;;;5052525;28;20466;-70
2021/08/31 00:53:53;;;;;;;14.23;11.70;;;17.10;86.80;;;;;;5052830;28;20481;-70
2021/08/31 00:56:21;;;;;;;12.80;11.50;;;17.10;87.00;;;;;;5052564;28;20943;-70
2021/08/31 00:58:47;;;;;;;12.00;10.90;;;17.10;87.20;;;;;;5055888;28;20456;-70
2021/08/31 01:01:14;;;;;;;12.07;10.83;;;17.00;87.20;;;;;;5056594;28;20477;-71
2021/08/31 01:03:41;;;;;;;14.90;13.40;;;17.00;87.30;;;;;;5056568;28;20445;-70
2021/08/31 01:06:08;;;;;;;14.13;12.77;;;17.00;87.60;;;;;;5056195;28;20456;-70
2021/08/31 01:08:36;;;;;;;14.33;13.00;;;17.00;88.00;;;;;;5056487;28;20446;-71
2021/08/31 01:11:04;;;;;;;15.07;13.53;;;17.00;88.20;;;;;;5056055;28;20473;-71
2021/08/31 01:13:32;;;;;;;17.20;14.33;;;17.00;88.20;;;;;;5056294;28;20503;-71
2021/08/31 01:15:59;;;;;;;15.97;14.43;;;17.00;89.10;;;;;;5056014;28;20931;-70
2021/08/31 01:18:27;;;;;;;16.10;14.50;;;17.00;88.40;;;;;;5056263;28;20441;-70
2021/08/31 01:20:55;;;;;;;18.60;16.20;;;17.00;88.40;;;;;;5055919;28;20889;-70
2021/08/31 01:23:23;;;;;;;15.27;13.77;;;16.90;88.40;;;;;;5056162;28;20464;-70
2021/08/31 01:25:52;;;;;;;17.73;15.93;;;16.90;88.60;;;;;;5055823;28;20438;-70
2021/08/31 01:28:20;;;;;;;16.40;14.80;;;16.90;88.80;;;;;;5056135;28;20858;-70
2021/08/31 01:30:49;;;;;;;16.63;14.80;;;16.90;88.80;;;;;;5055992;28;20465;-71
2021/08/31 01:33:16;;;;;;;17.40;15.50;;;16.90;89.00;;;;;;5055953;28;20846;-70
2021/08/31 01:35:43;;;;;;;17.83;15.93;;;16.90;89.40;;;;;;5056800;28;20485;-70
2021/08/31 01:38:10;;;;;;;17.30;15.60;;;16.80;89.40;;;;;;5055923;28;20453;-70
2021/08/31 01:40:37;;;;;;;19.00;17.00;;;16.80;89.70;;;;;;5055828;28;20473;-71
2021/08/31 01:43:05;;;;;;;18.47;16.50;;;16.80;89.80;;;;;;5055832;28;20465;-70
2021/08/31 01:45:42;;;;;;;17.33;15.53;;;16.80;90.00;;;;;;5055782;28;20446;-70
2021/08/31 01:48:09;;;;;;;17.97;16.07;;;16.80;90.50;;;;;;5055794;28;20460;-70
2021/08/31 01:50:36;;;;;;;19.23;16.30;;;16.70;90.10;;;;;;5055617;28;20469;-70
2021/08/31 01:53:03;;;;;;;17.20;15.40;;;16.70;90.20;;;;;;5055533;28;20519;-70
2021/08/31 01:55:29;;;;;;;18.67;16.60;;;16.70;90.30;;;;;;5055561;28;20441;-70
2021/08/31 01:57:56;;;;;;;18.80;15.70;;;16.70;90.30;;;;;;5055567;28;20446;-70
2021/08/31 02:00:24;;;;;;;18.10;16.30;;;16.70;90.30;;;;;;5055455;28;20450;-71
2021/08/31 02:02:51;;;;;;;16.97;15.17;;;16.70;90.40;;;;;;5055434;28;20452;-70
2021/08/31 02:05:18;;;;;;;19.30;16.13;;;16.70;90.50;;;;;;5055414;28;20445;-70
2021/08/31 02:07:45;;;;;;;17.97;16.13;;;16.70;90.60;;;;;;5055135;28;20820;-70
2021/08/31 02:10:12;;;;;;;18.00;16.27;;;16.70;90.60;;;;;;5055732;28;20466;-71
2021/08/31 02:12:39;;;;;;;18.33;16.20;;;16.60;90.70;;;;;;5055256;28;20445;-70
2021/08/31 02:15:06;;;;;;;17.87;16.27;;;16.60;90.70;;;;;;5055177;28;20449;-70
2021/08/31 02:17:34;;;;;;;19.23;17.13;;;16.60;90.70;;;;;;5054869;28;20837;-70
2021/08/31 02:20:01;;;;;;;17.90;16.13;;;16.60;90.60;;;;;;5055152;28;20511;-70
2021/08/31 02:22:28;;;;;;;22.33;18.60;;;16.60;90.60;;;;;;5054999;28;20457;-70
2021/08/31 02:24:55;;;;;;;20.20;18.30;;;16.60;90.70;;;;;;5054970;28;20464;-70
2021/08/31 02:27:21;;;;;;;17.67;15.87;;;16.60;90.70;;;;;;5054723;28;20446;-70
2021/08/31 02:29:48;;;;;;;19.50;17.63;;;16.60;90.80;;;;;;5055293;28;20453;-70
2021/08/31 02:32:15;;;;;;;19.70;17.20;;;16.60;90.80;;;;;;5055105;28;20465;-70
2021/08/31 02:34:43;;;;;;;19.03;17.30;;;16.50;90.70;;;;;;5055240;28;20476;-70
2021/08/31 02:37:10;;;;;;;19.13;17.23;;;16.60;90.70;;;;;;5054884;28;20432;-70
2021/08/31 02:39:36;;;;;;;19.23;17.43;;;16.50;90.70;;;;;;5054814;28;20446;-70
2021/08/31 02:42:03;;;;;;;20.70;18.20;;;16.50;90.70;;;;;;5054640;28;20477;-70
2021/08/31 02:44:30;;;;;;;20.90;18.90;;;16.50;90.70;;;;;;5054685;28;20442;-70
2021/08/31 02:46:57;;;;;;;21.43;17.47;;;16.50;90.70;;;;;;5054594;28;20529;-70
2021/08/31 02:49:24;;;;;;;20.20;18.20;;;16.50;90.70;;;;;;5054587;28;20445;-70
2021/08/31 02:51:52;;;;;;;21.37;19.27;;;16.50;90.80;;;;;;5054457;28;20462;-70
2021/08/31 02:54:18;;;;;;;21.03;18.13;;;16.50;90.80;;;;;;5054420;28;20481;-70
2021/08/31 02:56:45;;;;;;;19.87;17.90;;;16.50;90.80;;;;;;5054454;28;20449;-70
2021/08/31 02:59:13;;;;;;;20.47;18.43;;;16.50;90.70;;;;;;5054098;28;20908;-70
2021/08/31 03:02:04;;;;;;;18.83;16.93;;;16.50;90.70;;;;;;5054990;28;20552;-70
2021/08/31 03:04:27;;;;;;;21.87;19.80;;;16.50;90.60;;;;;;5054109;28;20433;-71
2021/08/31 03:06:55;;;;;;;21.43;19.10;;;16.50;90.60;;;;;;5054612;28;20449;-70
2021/08/31 03:09:22;;;;;;;22.43;19.27;;;16.40;90.60;;;;;;5054316;28;20453;-70
2021/08/31 03:11:48;;;;;;;22.57;20.30;;;16.40;90.70;;;;;;5054501;28;20481;-70
2021/08/31 03:14:19;;;;;;;21.03;18.83;;;16.40;90.90;;;;;;5053787;28;20880;-70
2021/08/31 03:16:46;;;;;;;19.80;17.90;;;16.40;90.90;;;;;;5054301;28;20458;-70
2021/08/31 03:19:13;;;;;;;19.83;17.77;;;16.40;91.00;;;;;;5053991;28;20422;-70
2021/08/31 03:21:40;;;;;;;22.43;20.03;;;16.40;91.20;;;;;;5053370;28;20469;-70
2021/08/31 03:24:08;;;;;;;20.50;18.40;;;16.40;91.20;;;;;;5053642;28;20928;-70
2021/08/31 03:26:35;;;;;;;21.57;19.30;;;16.30;91.20;;;;;;5053921;28;20441;-70
2021/08/31 03:29:02;;;;;;;20.63;18.53;;;16.40;91.20;;;;;;5053856;28;20521;-70
2021/08/31 03:31:29;;;;;;;20.60;17.73;;;16.40;91.10;;;;;;5053772;28;20476;-70
2021/08/31 03:33:55;;;;;;;22.40;20.07;;;16.30;91.00;;;;;;5053412;28;21014;-70
2021/08/31 03:36:22;;;;;;;22.97;20.67;;;16.30;91.10;;;;;;5053780;28;20445;-70
2021/08/31 03:38:49;;;;;;;26.17;23.60;;;16.30;91.20;;;;;;5053769;28;20520;-70
2021/08/31 03:41:17;;;;;;;28.43;25.43;;;16.30;91.40;;;;;;5053627;28;20473;-70
2021/08/31 03:43:44;;;;;;;31.10;27.70;;;16.30;91.60;;;;;;5053726;28;20445;-70
2021/08/31 03:46:10;;;;;;;32.93;29.60;;;16.30;91.80;;;;;;5053284;28;20987;-70
2021/08/31 03:48:37;;;;;;;33.27;29.73;;;16.30;92.00;;;;;;5053561;28;20453;-70
2021/08/31 03:51:04;;;;;;;37.63;31.17;;;16.30;92.30;;;;;;5053436;28;20462;-70
2021/08/31 03:53:31;;;;;;;34.43;30.73;;;16.40;92.60;;;;;;5053073;28;20445;-70
2021/08/31 03:55:57;;;;;;;36.00;30.83;;;16.40;92.80;;;;;;5053409;28;20457;-70
2021/08/31 03:58:25;;;;;;;36.20;29.67;;;16.40;92.90;;;;;;5053389;28;20449;-70
2021/08/31 04:00:52;;;;;;;33.60;30.00;;;16.40;93.20;;;;;;5053304;28;20472;-70
2021/08/31 04:03:19;;;;;;;34.50;30.40;;;16.40;93.40;;;;;;5053313;28;20484;-70
2021/08/31 04:05:45;;;;;;;35.97;30.60;;;16.40;94.00;;;;;;5053306;28;20449;-70
2021/08/31 04:08:12;;;;;;;48.80;31.30;;;16.40;94.00;;;;;;5053010;28;20958;-70
2021/08/31 04:10:39;;;;;;;42.23;33.10;;;16.50;94.20;;;;;;5052988;28;20488;-70
2021/08/31 04:13:07;;;;;;;35.50;31.30;;;16.50;94.30;;;;;;5053198;28;20454;-70
2021/08/31 04:15:35;;;;;;;35.47;31.57;;;16.50;94.30;;;;;;5053166;28;20509;-70
2021/08/31 04:18:02;;;;;;;35.30;30.70;;;16.50;94.40;;;;;;5053285;28;20441;-70
2021/08/31 04:20:29;;;;;;;35.20;29.30;;;16.60;94.60;;;;;;5053155;28;20431;-70
2021/08/31 04:22:55;;;;;;;33.80;29.63;;;16.60;94.60;;;;;;5053157;28;20483;-70
2021/08/31 04:25:22;;;;;;;38.60;30.67;;;16.60;94.60;;;;;;5053145;28;20449;-70
2021/08/31 04:27:49;;;;;;;40.00;33.20;;;16.60;94.70;;;;;;5053111;28;20488;-70
2021/08/31 04:30:16;;;;;;;37.37;32.23;;;16.60;94.80;;;;;;5053034;28;20450;-70
2021/08/31 04:32:45;;;;;;;42.23;31.23;;;16.60;94.80;;;;;;5056243;28;20452;-70
2021/08/31 04:35:12;;;;;;;37.87;30.53;;;16.50;94.80;;;;;;5057067;28;20469;-70
2021/08/31 04:37:39;;;;;;;46.43;34.63;;;16.60;94.90;;;;;;5057088;28;20461;-70
2021/08/31 04:40:07;;;;;;;43.20;33.63;;;16.60;94.90;;;;;;5057035;28;20441;-70
2021/08/31 04:42:34;;;;;;;41.30;32.90;;;16.60;95.00;;;;;;5056525;28;20913;-70
2021/08/31 04:45:00;;;;;;;49.40;35.93;;;16.50;95.00;;;;;;5056595;28;20446;-70
2021/08/31 04:47:27;;;;;;;43.93;35.77;;;16.50;95.10;;;;;;5056799;28;20449;-70
2021/08/31 04:49:55;;;;;;;48.83;37.37;;;16.50;95.20;;;;;;5056792;28;20447;-70
2021/08/31 04:52:22;;;;;;;50.13;36.80;;;16.60;95.20;;;;;;5056417;28;20991;-70
2021/08/31 04:54:49;;;;;;;47.10;36.30;;;16.50;95.20;;;;;;5056629;28;20485;-70
2021/08/31 04:57:15;;;;;;;70.50;37.57;;;16.60;95.30;;;;;;5056676;28;20456;-70
2021/08/31 04:59:42;;;;;;;47.17;36.87;;;16.60;95.30;;;;;;5056333;28;20441;-70
2021/08/31 05:02:09;;;;;;;54.40;39.67;;;16.60;95.30;;;;;;5056196;28;21002;-70
2021/08/31 05:04:36;;;;;;;54.53;38.73;;;16.60;95.40;;;;;;5056573;28;20445;-70
2021/08/31 05:07:05;;;;;;;50.83;37.07;;;16.60;95.40;;;;;;5056538;28;20436;-70
2021/08/31 05:09:33;;;;;;;51.97;35.37;;;16.60;95.40;;;;;;5056474;28;20426;-70
2021/08/31 05:11:59;;;;;;;49.97;36.47;;;16.50;95.40;;;;;;5056021;28;20488;-70
2021/08/31 05:14:26;;;;;;;48.40;35.30;;;16.60;95.50;;;;;;5055938;28;20476;-70
2021/08/31 05:16:53;;;;;;;54.43;38.53;;;16.50;95.50;;;;;;5056297;28;20853;-70
2021/08/31 05:19:19;;;;;;;55.13;37.57;;;16.50;95.60;;;;;;5056277;28;20448;-70
2021/08/31 05:21:49;;;;;;;52.23;38.93;;;16.60;95.70;;;;;;5056163;28;20468;-70
2021/08/31 05:24:18;;;;;;;58.30;38.93;;;16.60;95.80;;;;;;5056973;28;20824;-70
2021/08/31 05:26:44;;;;;;;55.60;40.40;;;16.60;95.80;;;;;;5056129;28;20854;-70
2021/08/31 05:29:11;;;;;;;53.77;39.13;;;16.60;95.80;;;;;;5055821;28;20931;-70
2021/08/31 05:31:38;;;;;;;52.07;39.80;;;16.60;95.80;;;;;;5055954;28;20469;-70
2021/08/31 05:34:04;;;;;;;52.33;38.93;;;16.60;95.80;;;;;;5055817;28;20488;-70
2021/08/31 05:36:31;;;;;;;50.77;38.50;;;16.60;95.90;;;;;;5055945;28;20434;-70
2021/08/31 05:38:58;;;;;;;45.70;36.90;;;16.60;95.90;;;;;;5055484;28;20452;-70
2021/08/31 05:41:26;;;;;;;49.47;36.83;;;16.60;95.80;;;;;;5055642;28;20461;-70
2021/08/31 05:43:53;;;;;;;45.47;37.53;;;16.60;95.70;;;;;;5055017;28;20430;-70
2021/08/31 05:46:20;;;;;;;48.90;37.50;;;16.60;95.70;;;;;;5057657;28;20926;-70
2021/08/31 05:48:46;;;;;;;43.63;37.10;;;16.60;95.80;;;;;;5055776;28;20426;-70
2021/08/31 05:51:13;;;;;;;47.73;36.13;;;16.60;95.80;;;;;;5055622;28;20465;-70
2021/08/31 05:53:40;;;;;;;42.83;34.50;;;16.60;95.90;;;;;;5055600;28;20476;-70
2021/08/31 05:56:07;;;;;;;44.20;34.30;;;16.70;96.00;;;;;;5055605;28;20486;-70
2021/08/31 05:58:35;;;;;;;55.30;34.73;;;16.70;96.00;;;;;;5055581;28;20448;-70
2021/08/31 06:01:02;;;;;;;42.73;35.10;;;16.70;96.00;;;;;;5056556;28;20488;-70
2021/08/31 06:03:28;;;;;;;40.43;35.37;;;16.80;95.90;;;;;;5055392;28;20452;-70
2021/08/31 06:05:55;;;;;;;39.70;31.83;;;16.80;95.90;;;;;;5055062;28;20803;-70
2021/08/31 06:08:22;;;;;;;40.67;34.43;;;16.90;95.90;;;;;;5055333;28;20446;-70
2021/08/31 06:10:48;;;;;;;38.97;32.20;;;17.00;95.90;;;;;;5054935;28;20478;-70
2021/08/31 06:13:15;;;;;;;34.03;30.30;;;17.10;95.70;;;;;;5055145;28;20445;-71
2021/08/31 06:15:43;;;;;;;40.50;32.87;;;17.20;95.50;;;;;;5054745;28;20477;-72
2021/08/31 06:18:10;;;;;;;37.47;31.40;;;17.20;95.40;;;;;;5055409;28;20560;-71
2021/08/31 06:20:37;;;;;;;35.27;31.20;;;17.20;95.30;;;;;;5055100;28;20461;-74
2021/08/31 06:23:03;;;;;;;35.17;30.90;;;17.30;95.30;;;;;;5055135;28;20465;-70
2021/08/31 06:25:30;;;;;;;38.37;30.87;;;17.40;95.10;;;;;;5055013;28;20470;-71
2021/08/31 06:27:57;;;;;;;32.50;29.10;;;17.40;95.00;;;;;;5054981;28;20445;-70
2021/08/31 06:30:23;;;;;;;33.30;29.60;;;17.50;94.90;;;;;;5054875;28;20433;-71
2021/08/31 06:32:52;;;;;;;33.97;27.10;;;17.50;94.70;;;;;;5054563;28;20792;-75
2021/08/31 06:35:18;;;;;;;32.03;28.70;;;17.50;94.70;;;;;;5054789;28;20481;-76
2021/08/31 06:37:45;;;;;;;36.33;29.93;;;17.60;94.60;;;;;;5054758;28;20430;-76
2021/08/31 06:40:13;;;;;;;31.53;27.87;;;17.60;94.60;;;;;;5054802;28;20446;-76
2021/08/31 06:42:40;;;;;;;31.10;26.93;;;17.70;94.50;;;;;;5054338;28;20901;-76
2021/08/31 06:45:07;;;;;;;30.37;26.47;;;17.70;94.40;;;;;;5054624;28;20446;-76
2021/08/31 06:47:34;;;;;;;31.30;28.20;;;17.80;94.40;;;;;;5054335;28;20800;-76
2021/08/31 06:50:03;;;;;;;30.77;27.57;;;17.80;94.20;;;;;;5054518;28;20441;-76
2021/08/31 06:52:29;;;;;;;32.60;29.10;;;17.90;94.10;;;;;;5054425;28;20469;-76
2021/08/31 06:54:57;;;;;;;32.43;29.13;;;17.90;94.20;;;;;;5053344;28;20477;-76
2021/08/31 06:57:23;;;;;;;30.20;26.93;;;17.90;94.00;;;;;;5054407;28;20457;-76
2021/08/31 06:59:50;;;;;;;31.07;27.80;;;18.00;93.90;;;;;;5054374;28;20434;-76
2021/08/31 07:02:17;;;;;;;30.70;27.53;;;18.00;93.70;;;;;;5054230;28;20462;-76
2021/08/31 07:04:43;;;;;;;31.40;28.10;;;18.10;93.60;;;;;;5053983;28;20897;-76
2021/08/31 07:07:11;;;;;;;34.90;30.53;;;18.10;93.40;;;;;;5054200;28;20426;-76
2021/08/31 07:09:38;;;;;;;33.80;30.10;;;18.10;93.10;;;;;;5053905;28;20445;-76
2021/08/31 07:12:05;;;;;;;32.20;28.07;;;18.10;93.00;;;;;;5053639;28;20854;-76
2021/08/31 07:14:32;;;;;;;33.10;27.07;;;18.00;92.90;;;;;;5053709;28;20425;-76
2021/08/31 07:16:59;;;;;;;29.60;26.60;;;18.00;92.70;;;;;;5053746;28;20441;-76
2021/08/31 07:19:26;;;;;;;29.27;26.17;;;18.00;92.70;;;;;;5055366;28;20448;-76
2021/08/31 07:21:52;;;;;;;32.57;25.50;;;18.00;92.70;;;;;;5055980;28;20837;-77
2021/08/31 07:24:21;;;;;;;27.03;24.27;;;18.00;92.60;;;;;;5053958;28;20442;-76
2021/08/31 07:26:48;;;;;;;27.60;24.67;;;18.00;92.70;;;;;;5053922;28;20452;-76
2021/08/31 07:29:14;;;;;;;26.97;24.03;;;18.00;92.80;;;;;;5053817;28;20457;-76
2021/08/31 07:31:41;;;;;;;28.00;23.57;;;18.00;92.70;;;;;;5053729;28;20457;-76
2021/08/31 07:34:08;;;;;;;28.33;25.20;;;18.00;92.70;;;;;;5053746;28;20441;-76
2021/08/31 07:36:34;;;;;;;28.03;25.23;;;18.10;92.60;;;;;;5054413;28;20466;-76
2021/08/31 07:39:01;;;;;;;28.60;25.50;;;18.10;92.50;;;;;;5053883;28;20433;-77
2021/08/31 07:41:29;;;;;;;26.77;23.00;;;18.20;92.50;;;;;;5053610;28;20472;-76
2021/08/31 07:43:56;;;;;;;26.10;23.50;;;18.20;92.50;;;;;;5053632;28;20454;-77
2021/08/31 07:46:23;;;;;;;25.93;23.33;;;18.20;92.50;;;;;;5053546;28;20469;-77
2021/08/31 07:48:50;;;;;;;25.10;22.70;;;18.20;92.40;;;;;;5053596;28;20449;-76
2021/08/31 07:51:17;;;;;;;25.60;22.87;;;18.30;92.40;;;;;;5053416;28;20461;-76
2021/08/31 07:53:44;;;;;;;23.90;21.60;;;18.30;92.30;;;;;;5053433;28;20446;-76
2021/08/31 07:56:10;;;;;;;23.20;20.83;;;18.40;92.30;;;;;;5053346;28;20481;-76
2021/08/31 07:58:38;;;;;;;23.83;21.33;;;18.40;92.20;;;;;;5053448;28;20449;-76
2021/08/31 08:01:05;;;;;;;23.13;20.83;;;18.40;91.90;;;;;;5053771;28;20475;-77
2021/08/31 08:03:32;;;;;;;23.73;21.23;;;18.40;91.70;;;;;;5053352;28;20449;-76
2021/08/31 08:05:59;;;;;;;23.30;21.00;;;18.40;91.60;;;;;;5052639;28;20928;-76
2021/08/31 08:08:25;;;;;;;23.27;21.07;;;18.40;92.10;;;;;;5053249;28;20445;-77
2021/08/31 08:10:52;;;;;;;23.43;21.00;;;18.40;91.60;;;;;;5053043;28;20473;-76
2021/08/31 08:13:19;;;;;;;22.80;20.50;;;18.40;91.60;;;;;;5053256;28;20449;-76
2021/08/31 08:15:47;;;;;;;24.53;21.97;;;18.40;91.70;;;;;;5053120;28;20477;-77
2021/08/31 08:18:14;;;;;;;25.23;22.80;;;18.40;91.70;;;;;;5053272;28;20438;-76
2021/08/31 08:20:42;;;;;;;23.07;20.80;;;18.40;91.60;;;;;;5053157;28;20473;-76
2021/08/31 08:23:09;;;;;;;24.70;22.20;;;18.40;91.70;;;;;;5053251;28;20460;-76
2021/08/31 08:25:36;;;;;;;23.77;21.37;;;18.40;91.70;;;;;;5053208;28;20437;-76
2021/08/31 08:28:03;;;;;;;23.60;21.20;;;18.30;91.70;;;;;;5053078;28;20446;-76
2021/08/31 08:30:30;;;;;;;23.00;20.67;;;18.30;91.80;;;;;;5053071;28;20453;-76
2021/08/31 08:32:58;;;;;;;23.97;21.30;;;18.30;91.70;;;;;;5053026;28;20450;-76
2021/08/31 08:35:25;;;;;;;23.93;20.90;;;18.30;91.80;;;;;;5052887;28;20857;-76
2021/08/31 08:37:52;;;;;;;22.10;19.80;;;18.40;91.90;;;;;;5053075;28;20548;-76
2021/08/31 08:40:19;;;;;;;20.43;18.47;;;18.50;91.70;;;;;;5052910;28;20456;-76
2021/08/31 08:42:46;;;;;;;20.87;18.77;;;18.50;91.60;;;;;;5053677;28;20453;-72
2021/08/31 08:45:13;;;;;;;21.50;19.40;;;18.60;91.40;;;;;;5052910;28;20445;-72
2021/08/31 08:47:40;;;;;;;25.23;20.37;;;18.60;91.40;;;;;;5052992;28;20430;-72
2021/08/31 08:50:09;;;;;;;25.53;19.90;;;18.70;91.40;;;;;;5053000;28;20830;-72
2021/08/31 08:52:36;;;;;;;21.73;18.90;;;18.70;91.50;;;;;;5052887;28;20468;-72
2021/08/31 08:55:07;;;;;;;23.20;19.67;;;18.70;91.30;;;;;;5052820;28;20807;-72
2021/08/31 08:57:34;;;;;;;20.87;18.63;;;18.70;91.30;;;;;;5052879;28;20426;-72
2021/08/31 09:00:01;;;;;;;22.57;20.17;;;18.80;91.40;;;;;;5052581;28;20896;-72
2021/08/31 09:02:36;;;;;;;22.43;19.33;;;18.80;91.40;;;;;;5053752;28;20461;-72
2021/08/31 09:05:04;;;;;;;23.27;20.80;;;18.80;91.40;;;;;;5052798;28;20426;-72
2021/08/31 09:07:36;;;;;;;21.43;19.23;;;18.80;91.10;;;;;;5052758;28;20457;-72
2021/08/31 09:10:15;;;;;;;22.43;19.83;;;18.80;91.00;;;;;;5052661;28;20532;-72
2021/08/31 09:12:45;;;;;;;24.27;20.43;;;18.80;90.90;;;;;;5052750;28;20503;-72
2021/08/31 09:15:38;;;;;;;24.47;21.87;;;18.80;90.90;;;;;;5052599;28;20445;-72
2021/08/31 09:18:16;;;;;;;22.63;19.77;;;18.80;91.10;;;;;;5043083;28;20465;-72
2021/08/31 09:20:47;;;;;;;24.40;20.43;;;18.80;91.10;;;;;;5056278;28;20461;-72
2021/08/31 09:23:21;;;;;;;23.83;19.30;;;18.80;91.10;;;;;;5055956;28;20996;-72
2021/08/31 09:25:50;;;;;;;22.37;20.00;;;18.80;91.10;;;;;;5055883;28;20422;-72
2021/08/31 09:28:23;;;;;;;22.30;19.77;;;18.80;91.10;;;;;;5055929;28;20441;-72
2021/08/31 09:31:02;;;;;;;23.70;20.07;;;18.70;91.00;;;;;;5056103;28;20484;-72
2021/08/31 09:33:31;;;;;;;21.60;18.10;;;18.70;91.20;;;;;;5056106;28;20430;-72
2021/08/31 09:36:10;;;;;;;22.40;17.63;;;18.70;91.20;;;;;;5055954;28;20508;-72
2021/08/31 09:38:53;;;;;;;19.40;16.90;;;18.70;91.20;;;;;;5055982;28;20513;-72
2021/08/31 09:41:34;;;;;;;21.37;17.70;;;18.80;91.30;;;;;;5055915;28;20468;-72
2021/08/31 09:44:04;;;;;;;21.40;16.00;;;18.80;91.20;;;;;;5055888;28;20434;-72
2021/08/31 09:46:48;;;;;;;18.07;16.30;;;18.90;91.30;;;;;;5055835;28;20422;-72
2021/08/31 09:49:19;;;;;;;21.80;15.53;;;19.00;91.10;;;;;;5055408;28;20936;-72
2021/08/31 09:52:04;;;;;;;17.97;15.97;;;19.00;91.10;;;;;;5055615;28;20462;-72
2021/08/31 09:54:35;;;;;;;17.70;15.17;;;19.10;91.00;;;;;;5055702;28;20435;-72
2021/08/31 09:57:02;;;;;;;17.90;14.83;;;19.20;90.40;;;;;;5055587;28;20461;-72
2021/08/31 09:59:31;;;;;;;17.83;14.80;;;19.20;90.50;;;;;;5055532;28;20445;-72
2021/08/31 10:01:57;;;;;;;18.00;14.90;;;19.30;90.60;;;;;;5055505;28;20469;-72
2021/08/31 10:04:24;;;;;;;15.37;13.77;;;19.30;90.30;;;;;;5055247;28;20787;-72
2021/08/31 10:06:51;;;;;;;16.60;13.93;;;19.40;89.90;;;;;;5055427;28;20441;-72
2021/08/31 10:09:19;;;;;;;15.53;12.27;;;19.70;90.00;;;;;;5055111;28;20978;-72
2021/08/31 10:11:47;;;;;;;16.80;13.17;;;19.80;90.00;;;;;;5054881;28;20862;-72
2021/08/31 10:14:15;;;;;;;17.23;12.90;;;20.00;89.40;;;;;;5055838;28;20453;-72
2021/08/31 10:16:43;;;;;;;14.90;11.80;;;20.20;87.20;;;;;;5054847;28;20877;-72
2021/08/31 10:19:10;;;;;;;14.70;10.47;;;20.40;86.50;;;;;;5055251;28;20449;-72
2021/08/31 10:21:37;;;;;;;12.43;11.23;;;20.60;85.70;;;;;;5054825;28;21023;-72
2021/08/31 10:24:06;;;;;;;15.23;10.20;;;20.80;84.90;;;;;;5054784;28;20974;-73
2021/08/31 10:26:34;;;;;;;12.77;11.10;;;21.00;84.10;;;;;;5055046;28;20448;-72
2021/08/31 10:29:30;;;;;;;14.90;12.53;;;21.20;83.50;;;;;;5054529;28;20897;-72
2021/08/31 10:31:59;;;;;;;16.73;11.57;;;21.40;82.40;;;;;;5054883;28;20465;-72
2021/08/31 10:34:43;;;;;;;15.57;10.83;;;21.50;81.30;;;;;;5054874;28;20445;-72
2021/08/31 10:37:15;;;;;;;10.83;9.67;;;21.60;79.50;;;;;;5054454;28;20995;-72
2021/08/31 10:39:44;;;;;;;16.63;9.30;;;21.90;78.00;;;;;;5054846;28;20803;-72
2021/08/31 10:42:11;;;;;;;13.20;10.57;;;22.50;76.90;;;;;;5054670;28;20469;-72
2021/08/31 10:44:44;;;;;;;9.43;8.53;;;23.10;75.50;;;;;;5054704;28;20456;-72
2021/08/31 10:47:20;;;;;;;12.53;9.60;;;23.50;71.20;;;;;;5054734;28;20476;-72
2021/08/31 10:50:21;;;;;;;12.33;10.20;;;23.70;69.60;;;;;;5055489;28;20462;-72
2021/08/31 10:52:56;;;;;;;13.73;9.63;;;24.40;68.30;;;;;;5054588;28;20771;-72
2021/08/31 10:55:41;;;;;;;9.63;8.73;;;24.90;65.20;;;;;;5054543;28;20433;-72
2021/08/31 10:58:11;;;;;;;10.00;7.60;;;25.40;62.50;;;;;;5054135;28;20831;-72
2021/08/31 11:00:51;;;;;;;8.37;6.50;;;26.00;60.40;;;;;;5054314;28;20477;-73
2021/08/31 11:03:35;;;;;;;9.03;7.20;;;26.60;58.80;;;;;;5054047;28;20761;-73
2021/08/31 11:06:29;;;;;;;11.10;7.47;;;27.60;55.80;;;;;;5054334;28;20426;-72
2021/08/31 11:09:19;;;;;;;11.23;7.97;;;28.70;53.20;;;;;;5053997;28;20430;-72
2021/08/31 11:11:50;;;;;;;9.07;7.53;;;29.60;49.90;;;;;;5053747;28;20473;-73
2021/08/31 11:14:18;;;;;;;8.43;5.93;;;30.30;47.60;;;;;;5054255;28;20529;-73
2021/08/31 11:16:49;;;;;;;7.67;6.87;;;30.80;45.60;;;;;;5054054;28;20488;-73
2021/08/31 11:19:25;;;;;;;11.50;8.50;;;31.70;44.20;;;;;;5054111;28;20483;-73
2021/08/31 11:21:54;;;;;;;9.50;8.57;;;32.00;41.60;;;;;;5053676;28;21000;-73
2021/08/31 11:24:21;;;;;;;10.13;8.93;;;31.30;40.70;;;;;;5053926;28;20446;-73
2021/08/31 11:26:47;;;;;;;8.93;8.13;;;30.20;44.20;;;;;;5053598;28;20951;-73
2021/08/31 11:29:15;;;;;;;8.83;7.77;;;29.30;46.70;;;;;;5053865;28;20452;-73
2021/08/31 11:31:42;;;;;;;12.63;8.33;;;28.30;48.60;;;;;;5053864;28;20461;-73
2021/08/31 11:34:13;;;;;;;10.10;8.97;;;27.60;50.00;;;;;;5053816;28;20448;-73
2021/08/31 11:36:42;;;;;;;12.57;7.93;;;27.60;51.50;;;;;;5053460;28;20802;-73
2021/08/31 11:39:12;;;;;;;8.77;7.10;;;28.00;49.30;;;;;;5053472;28;20445;-73
2021/08/31 11:41:41;;;;;;;7.33;6.47;;;28.20;48.80;;;;;;5052787;28;21037;-73
2021/08/31 11:44:14;;;;;;;9.77;6.70;;;27.90;48.40;;;;;;5053634;28;20445;-73
2021/08/31 11:46:43;;;;;;;7.10;6.20;;;27.80;49.00;;;;;;5053923;28;20441;-73
2021/08/31 11:49:17;;;;;;;10.30;5.27;;;28.30;48.00;;;;;;5053691;28;20432;-73
2021/08/31 11:51:59;;;;;;;8.23;5.70;;;28.90;47.80;;;;;;5053584;28;20469;-73
2021/08/31 11:54:28;;;;;;;7.50;5.80;;;29.50;44.60;;;;;;5053539;28;20426;-73
2021/08/31 11:57:00;;;;;;;7.33;5.70;;;30.20;43.00;;;;;;5053469;28;20465;-73
2021/08/31 11:59:41;;;;;;;8.87;5.60;;;31.20;42.10;;;;;;5053521;28;20436;-73
2021/08/31 12:02:16;;;;;;;5.97;5.40;;;32.30;38.50;;;;;;5053356;28;20468;-74
2021/08/31 12:04:47;;;;;;;6.30;5.37;;;32.30;38.70;;;;;;5053558;28;20519;-73
2021/08/31 12:07:17;;;;;;;8.00;5.07;;;32.10;38.50;;;;;;5053979;28;20442;-73
2021/08/31 12:09:46;;;;;;;7.40;4.93;;;31.90;39.10;;;;;;5053124;28;20930;-73
2021/08/31 12:12:14;;;;;;;5.53;5.03;;;32.20;39.80;;;;;;5052934;28;21009;-73
2021/08/31 12:14:41;;;;;;;5.80;5.00;;;33.00;38.80;;;;;;5053355;28;20450;-73
2021/08/31 12:17:09;;;;;;;5.53;5.03;;;34.00;36.90;;;;;;5053379;28;20472;-73
2021/08/31 12:19:36;;;;;;;5.87;5.37;;;35.20;33.90;;;;;;5053282;28;20484;-73
2021/08/31 12:22:10;;;;;;;7.97;5.13;;;35.40;30.80;;;;;;5053177;28;20464;-73
2021/08/31 12:24:37;;;;;;;5.93;5.27;;;35.30;32.20;;;;;;5053274;28;20429;-73
2021/08/31 12:27:09;;;;;;;9.10;5.83;;;35.80;32.00;;;;;;5052937;28;20205;-73
2021/08/31 12:29:53;;;;;;;6.40;5.07;;;36.60;30.40;;;;;;5052860;28;20214;-73
2021/08/31 12:32:25;;;;;;;5.20;4.70;;;37.40;29.50;;;;;;5053104;28;20233;-74
2021/08/31 12:34:52;;;;;;;6.20;5.65;;;38.10;28.10;;;;;;5053115;28;20221;-74
2021/08/31 12:37:27;;;;;;;6.18;5.10;;;38.20;27.30;;;;;;5053097;28;20218;-73
2021/08/31 12:40:14;;;;;;;6.20;5.70;;;38.00;27.20;;;;;;5052783;28;20205;-73